Time;durP1;ratioP1;P1;durP2;ratioP2;P2;SDS_P1;SDS_P2;PMS_P1;PMS_P2;Temp;Humidity;BMP_temperature;BMP_pressure;BME280_temperature;BME280_humidity;BME280_pressure;Samples;Min_cycle;Max_cycle;Signal;HPM_P1;HPM_P2
2023/04/11 00:00:27;;;;;;;;;;;21.00;31.90;;;;;;8399810;28;19917;-42
2023/04/11 00:04:27;;;;;;;;;;;21.00;32.00;;;;;;8400112;28;20343;-43
2023/04/11 00:08:28;;;;;;;;;;;21.00;32.00;;;;;;8399178;28;19921;-44
2023/04/11 00:12:29;;;;;;;;;;;20.90;32.00;;;;;;8399386;28;20281;-43
2023/04/11 00:16:32;;;;;;;;;;;20.90;31.90;;;;;;8399357;28;19923;-43
2023/04/11 00:20:33;;;;;;;;;;;20.90;32.00;;;;;;8399056;28;19923;-42
2023/04/11 00:24:33;;;;;;;;;;;20.90;32.00;;;;;;8399576;28;19920;-43
2023/04/11 00:28:34;;;;;;;;;;;20.90;32.00;;;;;;8399260;28;19920;-42
2023/04/11 00:32:35;;;;;;;;;;;20.90;32.00;;;;;;8398477;28;20270;-41
2023/04/11 00:36:35;;;;;;;;;;;20.90;32.00;;;;;;8398810;28;19916;-42
2023/04/11 00:40:36;;;;;;;;;;;20.90;32.10;;;;;;8398515;28;20022;-42
2023/04/11 00:44:36;;;;;;;;;;;20.90;32.10;;;;;;8398423;28;19912;-42
2023/04/11 00:48:37;;;;;;;;;;;20.90;32.20;;;;;;8398699;28;19950;-42
2023/04/11 00:52:37;;;;;;;;;;;20.80;32.20;;;;;;8398489;28;19916;-42
2023/04/11 00:56:38;;;;;;;;;;;20.80;32.20;;;;;;8397458;28;19916;-42
2023/04/11 01:00:40;;;;;;;;;;;20.90;32.30;;;;;;8397951;28;20381;-42
2023/04/11 01:04:40;;;;;;;;;;;20.80;32.20;;;;;;8396794;28;20019;-43
2023/04/11 01:08:42;;;;;;;;;;;20.80;32.20;;;;;;8397483;28;19932;-42
2023/04/11 01:12:42;;;;;;;;;;;20.80;32.20;;;;;;8397975;28;20361;-43
2023/04/11 01:16:45;;;;;;;;;;;20.80;32.30;;;;;;8397571;28;19916;-44
2023/04/11 01:20:46;;;;;;;;;;;20.80;32.30;;;;;;8396550;28;19920;-44
2023/04/11 01:24:46;;;;;;;;;;;20.80;32.30;;;;;;8397379;28;20332;-43
2023/04/11 01:28:47;;;;;;;;;;;20.70;32.30;;;;;;8397435;28;19932;-43
2023/04/11 01:32:49;;;;;;;;;;;20.70;32.30;;;;;;8396728;28;20358;-43
2023/04/11 01:36:49;;;;;;;;;;;20.70;32.30;;;;;;8397072;28;20301;-43
2023/04/11 01:40:50;;;;;;;;;;;20.70;32.30;;;;;;8397026;28;19987;-43
2023/04/11 01:44:51;;;;;;;;;;;20.70;32.30;;;;;;8396344;28;19924;-42
2023/04/11 01:48:53;;;;;;;;;;;20.70;32.30;;;;;;8396879;28;20372;-44
2023/04/11 01:52:53;;;;;;;;;;;20.70;32.30;;;;;;8396737;28;19920;-42
2023/04/11 01:56:54;;;;;;;;;;;20.70;32.30;;;;;;8396266;28;19916;-43
2023/04/11 02:00:55;;;;;;;;;;;20.70;32.30;;;;;;8396715;28;19920;-42
2023/04/11 02:04:55;;;;;;;;;;;20.70;32.30;;;;;;8396976;28;20357;-43
2023/04/11 02:08:56;;;;;;;;;;;20.70;32.30;;;;;;8395924;28;19925;-43
2023/04/11 02:12:56;;;;;;;;;;;20.60;32.30;;;;;;8396744;28;19923;-43
2023/04/11 02:16:56;;;;;;;;;;;20.60;32.30;;;;;;8396459;28;19920;-43
2023/04/11 02:20:57;;;;;;;;;;;20.60;32.30;;;;;;8395735;28;19928;-43
2023/04/11 02:24:57;;;;;;;;;;;20.60;32.30;;;;;;8396523;28;19920;-43
2023/04/11 02:28:58;;;;;;;;;;;20.60;32.30;;;;;;8396235;28;19925;-43
2023/04/11 02:32:59;;;;;;;;;;;20.60;32.40;;;;;;8399803;28;19927;-43
2023/04/11 02:37:00;;;;;;;;;;;20.60;32.50;;;;;;8402818;28;19927;-43
2023/04/11 02:41:00;;;;;;;;;;;20.60;32.50;;;;;;8402686;28;20267;-45
2023/04/11 02:45:01;;;;;;;;;;;20.60;32.50;;;;;;8402380;28;20385;-44
2023/04/11 02:49:02;;;;;;;;;;;20.50;32.60;;;;;;8402274;28;19928;-44
2023/04/11 02:53:03;;;;;;;;;;;20.60;32.60;;;;;;8402172;28;20007;-44
2023/04/11 02:57:03;;;;;;;;;;;20.60;32.70;;;;;;8401526;28;19920;-44
2023/04/11 03:01:05;;;;;;;;;;;20.60;32.80;;;;;;8402001;28;19916;-45
2023/04/11 03:05:06;;;;;;;;;;;20.50;32.80;;;;;;8402037;28;19920;-45
2023/04/11 03:09:06;;;;;;;;;;;20.50;32.80;;;;;;8400976;28;19925;-46
2023/04/11 03:13:06;;;;;;;;;;;20.50;32.90;;;;;;8401640;28;19916;-44
2023/04/11 03:17:07;;;;;;;;;;;20.50;33.00;;;;;;8401269;28;19913;-45
2023/04/11 03:21:09;;;;;;;;;;;20.50;33.00;;;;;;8400631;28;20281;-45
2023/04/11 03:25:10;;;;;;;;;;;20.50;33.00;;;;;;8401565;28;19960;-43
2023/04/11 03:29:10;;;;;;;;;;;20.50;33.00;;;;;;8401243;28;20313;-43
2023/04/11 03:33:11;;;;;;;;;;;20.50;33.10;;;;;;8400386;28;19917;-44
2023/04/11 03:37:11;;;;;;;;;;;20.50;33.10;;;;;;8400618;28;19936;-45
2023/04/11 03:41:11;;;;;;;;;;;20.50;33.20;;;;;;8400570;28;19916;-43
2023/04/11 03:45:12;;;;;;;;;;;20.50;33.20;;;;;;8399394;28;19988;-43
2023/04/11 03:49:12;;;;;;;;;;;20.50;33.20;;;;;;8400340;28;19948;-45
2023/04/11 03:53:13;;;;;;;;;;;20.50;33.20;;;;;;8400247;28;20358;-44
2023/04/11 03:57:13;;;;;;;;;;;20.50;33.20;;;;;;8399676;28;19927;-43
2023/04/11 04:01:14;;;;;;;;;;;20.60;33.20;;;;;;8399974;28;19991;-44
2023/04/11 04:05:14;;;;;;;;;;;20.50;33.20;;;;;;8400092;28;19925;-44
2023/04/11 04:09:15;;;;;;;;;;;20.60;33.30;;;;;;8378104;28;19932;-44
2023/04/11 04:13:15;;;;;;;;;;;20.50;33.10;;;;;;8387360;28;19916;-43
2023/04/11 04:17:16;;;;;;;;;;;20.60;33.10;;;;;;8399647;28;19919;-45
2023/04/11 04:21:16;;;;;;;;;;;20.70;33.10;;;;;;8399024;28;20007;-44
2023/04/11 04:25:18;;;;;;;;;;;20.80;32.90;;;;;;8399729;28;19919;-44
2023/04/11 04:29:19;;;;;;;;;;;20.80;33.00;;;;;;8399037;28;19932;-46
2023/04/11 04:33:20;;;;;;;;;;;20.90;33.00;;;;;;8398541;28;20003;-44
2023/04/11 04:37:22;;;;;;;;;;;20.90;32.80;;;;;;8398762;28;19916;-44
2023/04/11 04:41:22;;;;;;;;;;;21.00;32.90;;;;;;8398538;28;20361;-43
2023/04/11 04:45:22;;;;;;;;;;;21.10;32.90;;;;;;8398279;28;19912;-47
2023/04/11 04:49:23;;;;;;;;;;;21.10;32.90;;;;;;8398507;28;19984;-45
2023/04/11 04:53:23;;;;;;;;;;;21.10;32.90;;;;;;8398341;28;20401;-45
2023/04/11 04:57:25;;;;;;;;;;;21.20;32.90;;;;;;8396631;28;19920;-45
2023/04/11 05:01:26;;;;;;;;;;;21.20;33.00;;;;;;8398006;28;19919;-45
2023/04/11 05:05:28;;;;;;;;;;;21.20;33.00;;;;;;8397846;28;19921;-46
2023/04/11 05:09:28;;;;;;;;;;;21.20;33.10;;;;;;8397572;28;19935;-46
2023/04/11 05:13:30;;;;;;;;;;;21.20;33.20;;;;;;8397803;28;19917;-45
2023/04/11 05:17:30;;;;;;;;;;;21.20;33.30;;;;;;8396981;28;19912;-46
2023/04/11 05:21:31;;;;;;;;;;;21.20;33.10;;;;;;8397788;28;19935;-44
2023/04/11 05:25:31;;;;;;;;;;;21.20;33.10;;;;;;8397448;28;19916;-44
2023/04/11 05:29:31;;;;;;;;;;;21.10;33.00;;;;;;8396589;28;20340;-43
2023/04/11 05:33:32;;;;;;;;;;;21.10;33.00;;;;;;8397033;28;19924;-43
2023/04/11 05:37:32;;;;;;;;;;;21.10;33.20;;;;;;8397239;28;19912;-44
2023/04/11 05:41:33;;;;;;;;;;;21.10;33.30;;;;;;8396355;28;19917;-44
2023/04/11 05:45:33;;;;;;;;;;;21.00;33.40;;;;;;8396849;28;19927;-44
2023/04/11 05:49:34;;;;;;;;;;;21.00;33.40;;;;;;8396674;28;20023;-44
2023/04/11 05:53:34;;;;;;;;;;;21.10;34.10;;;;;;8396249;28;20447;-45
2023/04/11 05:57:35;;;;;;;;;;;21.00;34.10;;;;;;8396690;28;19950;-45
2023/04/11 06:01:38;;;;;;;;;;;21.00;33.50;;;;;;8396161;28;20308;-44
2023/04/11 06:05:39;;;;;;;;;;;21.00;33.50;;;;;;8395354;28;19921;-44
2023/04/11 06:09:41;;;;;;;;;;;21.10;33.50;;;;;;8396494;28;19960;-44
2023/04/11 06:13:41;;;;;;;;;;;21.00;33.30;;;;;;8396461;28;19920;-45
2023/04/11 06:17:42;;;;;;;;;;;21.10;33.40;;;;;;8395483;28;19916;-45
2023/04/11 06:21:42;;;;;;;;;;;21.10;33.60;;;;;;8396030;28;20289;-44
2023/04/11 06:25:43;;;;;;;;;;;21.10;33.50;;;;;;8396293;28;20400;-44
2023/04/11 06:29:43;;;;;;;;;;;21.10;33.50;;;;;;8395524;28;19920;-44
2023/04/11 06:33:44;;;;;;;;;;;21.10;33.60;;;;;;8396272;28;19928;-46
2023/04/11 06:37:45;;;;;;;;;;;21.10;33.60;;;;;;8395773;28;20414;-44
2023/04/11 06:41:45;;;;;;;;;;;21.20;33.70;;;;;;8395524;28;20270;-45
2023/04/11 06:45:46;;;;;;;;;;;21.20;33.60;;;;;;8395898;28;19916;-44
2023/04/11 06:49:46;;;;;;;;;;;21.20;33.40;;;;;;8395789;28;19931;-44
2023/04/11 06:53:47;;;;;;;;;;;21.20;33.40;;;;;;8395019;28;19927;-44
2023/04/11 06:57:47;;;;;;;;;;;21.20;33.70;;;;;;8395397;28;19920;-45
2023/04/11 07:01:48;;;;;;;;;;;21.20;33.60;;;;;;8394481;28;19916;-43
2023/04/11 07:05:50;;;;;;;;;;;21.20;33.60;;;;;;8394850;28;19917;-43
2023/04/11 07:09:51;;;;;;;;;;;21.20;33.60;;;;;;8395093;28;19928;-44
2023/04/11 07:13:51;;;;;;;;;;;21.20;33.60;;;;;;8395183;28;20373;-44
2023/04/11 07:17:52;;;;;;;;;;;21.20;33.70;;;;;;8395255;28;20263;-43
2023/04/11 07:21:52;;;;;;;;;;;21.20;33.80;;;;;;8401272;28;19920;-44
2023/04/11 07:25:53;;;;;;;;;;;21.20;33.90;;;;;;8400886;28;19916;-45
2023/04/11 07:29:55;;;;;;;;;;;21.10;33.70;;;;;;8400313;28;19934;-44
2023/04/11 07:33:55;;;;;;;;;;;21.10;33.80;;;;;;8400901;28;20356;-44
2023/04/11 07:37:57;;;;;;;;;;;21.10;33.80;;;;;;8400444;28;19917;-44
2023/04/11 07:41:57;;;;;;;;;;;21.10;33.70;;;;;;8400211;28;20013;-45
2023/04/11 07:45:58;;;;;;;;;;;21.10;33.80;;;;;;8400479;28;20450;-45
2023/04/11 07:49:59;;;;;;;;;;;21.10;33.80;;;;;;8400223;28;19956;-45
2023/04/11 07:53:59;;;;;;;;;;;21.10;33.80;;;;;;8399829;28;19982;-46
2023/04/11 07:58:00;;;;;;;;;;;21.10;33.80;;;;;;8400535;28;19916;-43
2023/04/11 08:02:00;;;;;;;;;;;21.10;33.80;;;;;;8400343;28;19935;-45
2023/04/11 08:06:01;;;;;;;;;;;21.10;33.80;;;;;;8399433;28;19923;-44
2023/04/11 08:10:01;;;;;;;;;;;21.10;33.70;;;;;;8399563;28;20373;-44
2023/04/11 08:14:02;;;;;;;;;;;21.10;33.80;;;;;;8399548;28;19917;-44
2023/04/11 08:18:04;;;;;;;;;;;21.10;33.80;;;;;;8398827;28;20331;-47
2023/04/11 08:22:05;;;;;;;;;;;21.10;33.80;;;;;;8399733;28;19921;-45
2023/04/11 08:26:06;;;;;;;;;;;21.10;33.80;;;;;;8399129;28;19917;-46
2023/04/11 08:30:07;;;;;;;;;;;21.10;33.80;;;;;;8397876;28;19977;-45
2023/04/11 08:34:07;;;;;;;;;;;21.10;33.80;;;;;;8399145;28;19912;-46
2023/04/11 08:38:08;;;;;;;;;;;21.10;33.80;;;;;;8398825;28;20377;-45
2023/04/11 08:42:24;;;;;;;;;;;21.10;33.80;;;;;;8397143;28;20381;-44
2023/04/11 08:46:24;;;;;;;;;;;21.10;33.80;;;;;;8398534;28;19977;-44
2023/04/11 08:50:25;;;;;;;;;;;21.10;33.70;;;;;;8398321;28;20026;-45
2023/04/11 08:54:25;;;;;;;;;;;21.10;33.70;;;;;;8397735;28;19917;-46
2023/04/11 08:58:26;;;;;;;;;;;21.10;33.70;;;;;;8398280;28;19920;-45
2023/04/11 09:02:26;;;;;;;;;;;21.10;33.70;;;;;;8397916;28;19920;-43
2023/04/11 09:06:29;;;;;;;;;;;21.10;33.70;;;;;;8397726;28;19916;-46
2023/04/11 09:10:30;;;;;;;;;;;21.10;33.70;;;;;;8397704;28;20031;-44
2023/04/11 09:14:30;;;;;;;;;;;21.10;33.60;;;;;;8397333;28;20022;-45
2023/04/11 09:18:32;;;;;;;;;;;21.10;33.60;;;;;;8397933;28;19917;-43
2023/04/11 09:22:35;;;;;;;;;;;21.10;33.70;;;;;;8397697;28;19965;-44
2023/04/11 09:26:36;;;;;;;;;;;21.10;33.60;;;;;;8396726;28;19916;-45
2023/04/11 09:30:36;;;;;;;;;;;21.20;33.70;;;;;;8397044;28;19930;-45
2023/04/11 09:34:37;;;;;;;;;;;21.10;33.60;;;;;;8397145;28;20187;-47
2023/04/11 09:38:37;;;;;;;;;;;21.10;33.60;;;;;;8396453;28;19917;-44
2023/04/11 09:42:38;;;;;;;;;;;21.10;33.60;;;;;;8396492;28;19916;-45
2023/04/11 09:46:54;;;;;;;;;;;21.20;33.60;;;;;;8396828;28;19951;-44
2023/04/11 09:50:55;;;;;;;;;;;21.20;33.60;;;;;;8396267;28;20031;-44
2023/04/11 09:54:55;;;;;;;;;;;21.20;33.60;;;;;;8396713;28;19916;-43
2023/04/11 09:58:56;;;;;;;;;;;21.20;33.50;;;;;;8396640;28;20370;-43
2023/04/11 10:02:56;;;;;;;;;;;21.20;33.60;;;;;;8396260;28;19944;-43
2023/04/11 10:07:03;;;;;;;;;;;21.20;33.60;;;;;;8395108;28;20008;-44
2023/04/11 10:11:06;;;;;;;;;;;21.20;33.50;;;;;;8396217;28;19970;-47
2023/04/11 10:15:10;;;;;;;;;;;21.20;33.40;;;;;;8395797;28;20391;-44
2023/04/11 10:19:13;;;;;;;;;;;21.20;33.40;;;;;;8396154;28;19912;-44
2023/04/11 10:23:15;;;;;;;;;;;21.20;33.50;;;;;;8396438;28;19951;-45
2023/04/11 10:27:35;;;;;;;;;;;21.20;33.50;;;;;;8395665;28;19921;-43
2023/04/11 10:31:49;;;;;;;;;;;21.20;33.40;;;;;;8395650;28;20010;-44
2023/04/11 10:36:09;;;;;;;;;;;21.20;33.40;;;;;;8394780;28;20340;-43
2023/04/11 10:40:09;;;;;;;;;;;21.20;33.40;;;;;;8396098;28;19917;-46
2023/04/11 10:44:14;;;;;;;;;;;21.20;33.40;;;;;;8395773;28;19913;-42
2023/04/11 10:48:15;;;;;;;;;;;21.20;33.40;;;;;;8395319;28;19920;-44
2023/04/11 10:52:20;;;;;;;;;;;21.20;33.40;;;;;;8395536;28;19920;-45
2023/04/11 10:56:39;;;;;;;;;;;21.20;33.40;;;;;;8401230;28;19912;-43
2023/04/11 11:00:46;;;;;;;;;;;21.20;33.30;;;;;;8401777;28;19923;-43
2023/04/11 11:04:47;;;;;;;;;;;21.20;33.30;;;;;;8401643;28;19920;-45
2023/04/11 11:08:48;;;;;;;;;;;21.20;33.30;;;;;;8400693;28;19943;-43
2023/04/11 11:12:52;;;;;;;;;;;21.20;33.30;;;;;;8401994;28;19913;-44
2023/04/11 11:16:53;;;;;;;;;;;21.20;33.30;;;;;;8401413;28;19974;-45
2023/04/11 11:20:53;;;;;;;;;;;21.20;33.30;;;;;;8400830;28;19917;-44
2023/04/11 11:25:05;;;;;;;;;;;21.20;33.30;;;;;;8401078;28;19927;-43
2023/04/11 11:29:07;;;;;;;;;;;21.20;33.30;;;;;;8400966;28;19928;-43
2023/04/11 11:33:15;;;;;;;;;;;21.20;33.30;;;;;;8400721;28;19913;-43
2023/04/11 11:37:15;;;;;;;;;;;21.20;33.20;;;;;;8400894;28;19920;-45
2023/04/11 11:41:16;;;;;;;;;;;21.20;33.30;;;;;;8399325;28;19924;-44
2023/04/11 11:45:17;;;;;;;;;;;21.20;33.20;;;;;;8400003;28;19925;-43
2023/04/11 11:49:17;;;;;;;;;;;21.20;33.20;;;;;;8400284;28;19924;-44
2023/04/11 11:53:18;;;;;;;;;;;21.20;33.20;;;;;;8400531;28;19972;-44
2023/04/11 11:57:19;;;;;;;;;;;21.20;33.20;;;;;;8400098;28;19920;-44
2023/04/11 12:01:21;;;;;;;;;;;21.20;33.20;;;;;;8400409;28;20061;-45
2023/04/11 12:05:23;;;;;;;;;;;21.20;33.20;;;;;;8399531;28;19956;-44
2023/04/11 12:09:29;;;;;;;;;;;21.20;33.20;;;;;;8399501;28;19924;-43
2023/04/11 12:13:30;;;;;;;;;;;21.20;33.20;;;;;;8399911;28;19912;-44
2023/04/11 12:17:31;;;;;;;;;;;21.20;33.20;;;;;;8399356;28;19939;-43
2023/04/11 12:21:32;;;;;;;;;;;21.20;33.20;;;;;;8399696;28;20341;-43
2023/04/11 12:25:32;;;;;;;;;;;21.20;33.10;;;;;;8399494;28;19917;-43
2023/04/11 12:29:32;;;;;;;;;;;21.20;33.10;;;;;;8398635;28;20393;-44
2023/04/11 12:33:33;;;;;;;;;;;21.20;33.10;;;;;;8399445;28;20423;-43
2023/04/11 12:37:33;;;;;;;;;;;21.10;33.10;;;;;;8398747;28;20007;-43
2023/04/11 12:41:34;;;;;;;;;;;21.10;33.60;;;;;;8398278;28;20408;-46
2023/04/11 12:45:35;;;;;;;;;;;21.20;33.10;;;;;;8398930;28;19920;-45
2023/04/11 12:49:35;;;;;;;;;;;21.20;33.10;;;;;;8398551;28;19928;-45
2023/04/11 12:53:35;;;;;;;;;;;21.20;33.00;;;;;;8397950;28;20046;-44
2023/04/11 12:57:36;;;;;;;;;;;21.20;33.00;;;;;;8398073;28;19991;-45
2023/04/11 13:01:36;;;;;;;;;;;21.20;33.00;;;;;;8395343;28;19916;-44
2023/04/11 13:05:37;;;;;;;;;;;21.20;32.90;;;;;;8397552;28;19982;-45
2023/04/11 13:09:37;;;;;;;;;;;21.20;32.80;;;;;;8396790;28;19927;-45
2023/04/11 13:13:38;;;;;;;;;;;21.20;32.90;;;;;;8398009;28;19966;-44
2023/04/11 13:17:38;;;;;;;;;;;21.20;32.90;;;;;;8396172;28;19924;-45
2023/04/11 13:21:40;;;;;;;;;;;21.20;32.80;;;;;;8396781;28;21298;-44
2023/04/11 13:25:41;;;;;;;;;;;21.20;32.80;;;;;;8397145;28;19919;-44
2023/04/11 13:29:41;;;;;;;;;;;21.20;32.80;;;;;;8396682;28;19954;-44
2023/04/11 13:33:43;;;;;;;;;;;21.20;32.80;;;;;;8397402;28;20003;-44
2023/04/11 13:37:44;;;;;;;;;;;21.20;32.90;;;;;;8397127;28;19927;-44
2023/04/11 13:41:44;;;;;;;;;;;21.20;32.80;;;;;;8396962;28;19912;-44
2023/04/11 13:45:45;;;;;;;;;;;21.20;32.80;;;;;;8397502;28;19917;-43
2023/04/11 13:49:45;;;;;;;;;;;21.20;32.80;;;;;;8396666;28;19935;-45
2023/04/11 13:53:46;;;;;;;;;;;21.20;32.80;;;;;;8396419;28;20007;-45
2023/04/11 13:57:46;;;;;;;;;;;21.20;32.80;;;;;;8396617;28;19962;-46
2023/04/11 14:01:47;;;;;;;;;;;21.20;32.80;;;;;;8396472;28;19913;-43
2023/04/11 14:05:47;;;;;;;;;;;21.20;32.70;;;;;;8396161;28;19932;-45
2023/04/11 14:09:47;;;;;;;;;;;21.20;32.70;;;;;;8394905;28;20377;-44
2023/04/11 14:13:48;;;;;;;;;;;21.20;32.70;;;;;;8396607;28;20292;-45
2023/04/11 14:17:48;;;;;;;;;;;21.20;32.70;;;;;;8395707;28;19917;-45
2023/04/11 14:21:50;;;;;;;;;;;21.20;32.70;;;;;;8396368;28;19921;-45
2023/04/11 14:25:50;;;;;;;;;;;21.20;32.60;;;;;;8396085;28;19921;-45
2023/04/11 14:29:51;;;;;;;;;;;21.20;32.60;;;;;;8401306;28;19927;-45
2023/04/11 14:33:52;;;;;;;;;;;21.20;32.60;;;;;;8402891;28;19923;-45
2023/04/11 14:37:52;;;;;;;;;;;21.20;33.10;;;;;;8402765;28;19916;-45
2023/04/11 14:41:53;;;;;;;;;;;21.20;33.00;;;;;;8401946;28;19966;-44
2023/04/11 14:45:54;;;;;;;;;;;21.20;32.50;;;;;;8402511;28;20381;-45
2023/04/11 14:49:55;;;;;;;;;;;21.20;32.50;;;;;;8401859;28;19995;-45
2023/04/11 14:53:55;;;;;;;;;;;21.20;32.60;;;;;;8401306;28;19916;-44
2023/04/11 14:57:56;;;;;;;;;;;21.20;32.50;;;;;;8401837;28;20292;-44
2023/04/11 15:01:56;;;;;;;;;;;21.20;32.50;;;;;;8401616;28;19920;-43
2023/04/11 15:05:57;;;;;;;;;;;21.20;32.50;;;;;;8401346;28;20335;-44
2023/04/11 15:09:57;;;;;;;;;;;21.20;32.60;;;;;;8401735;28;20408;-44
2023/04/11 15:13:58;;;;;;;;;;;21.20;32.70;;;;;;8401240;28;19923;-44
2023/04/11 15:18:17;;;;;;;;;;;21.30;32.60;;;;;;8400703;28;19916;-42
2023/04/11 15:22:17;;;;;;;;;;;21.40;33.00;;;;;;8401104;28;19917;-44
2023/04/11 15:26:18;;;;;;;;;;;21.50;32.50;;;;;;8401119;28;19924;-44
2023/04/11 15:30:18;;;;;;;;;;;21.50;32.30;;;;;;8400556;28;19966;-43
2023/04/11 15:34:22;;;;;;;;;;;21.60;32.30;;;;;;8401201;28;19974;-44
2023/04/11 15:38:22;;;;;;;;;;;21.60;32.30;;;;;;8400109;28;19923;-46
2023/04/11 15:42:23;;;;;;;;;;;21.70;32.30;;;;;;8399940;28;19917;-44
2023/04/11 15:46:23;;;;;;;;;;;21.70;32.10;;;;;;8400622;28;20015;-43
2023/04/11 15:50:26;;;;;;;;;;;21.70;32.10;;;;;;8400549;28;19992;-45
2023/04/11 15:54:26;;;;;;;;;;;21.80;32.20;;;;;;8399742;28;20001;-43
2023/04/11 15:58:27;;;;;;;;;;;21.80;32.20;;;;;;8400211;28;19921;-44
2023/04/11 16:02:27;;;;;;;;;;;21.80;32.20;;;;;;8385559;28;19977;-42
2023/04/11 16:06:27;;;;;;;;;;;21.80;32.10;;;;;;8374011;28;19917;-43
2023/04/11 16:10:29;;;;;;;;;;;21.80;32.10;;;;;;8400145;28;19920;-45
2023/04/11 16:14:29;;;;;;;;;;;21.80;32.10;;;;;;8399102;28;19916;-41
2023/04/11 16:18:30;;;;;;;;;;;21.70;32.10;;;;;;8399525;28;20327;-44
2023/04/11 16:22:30;;;;;;;;;;;21.70;32.10;;;;;;8399043;28;19916;-44
2023/04/11 16:26:31;;;;;;;;;;;21.70;32.10;;;;;;8398638;28;19916;-44
2023/04/11 16:30:31;;;;;;;;;;;21.70;32.10;;;;;;8399494;28;20302;-44
2023/04/11 16:34:31;;;;;;;;;;;21.60;32.10;;;;;;8398987;28;20377;-44
2023/04/11 16:38:32;;;;;;;;;;;21.60;32.20;;;;;;8398235;28;19917;-43
2023/04/11 16:42:32;;;;;;;;;;;21.60;32.20;;;;;;8398554;28;19920;-43
2023/04/11 16:46:33;;;;;;;;;;;21.60;32.20;;;;;;8398439;28;19916;-43
2023/04/11 16:50:34;;;;;;;;;;;21.60;32.40;;;;;;8397952;28;19999;-43
2023/04/11 16:54:34;;;;;;;;;;;21.60;32.20;;;;;;8398651;28;19917;-43
2023/04/11 16:58:36;;;;;;;;;;;21.60;32.30;;;;;;8398200;28;19981;-45
2023/04/11 17:02:36;;;;;;;;;;;21.60;32.30;;;;;;8397701;28;19927;-45
2023/04/11 17:06:37;;;;;;;;;;;21.60;32.30;;;;;;8397741;28;20365;-44
2023/04/11 17:10:37;;;;;;;;;;;21.60;32.30;;;;;;8397826;28;20339;-44
2023/04/11 17:14:38;;;;;;;;;;;21.60;32.30;;;;;;8397017;28;19998;-44
2023/04/11 17:18:38;;;;;;;;;;;21.60;32.30;;;;;;8397638;28;20365;-44
2023/04/11 17:22:41;;;;;;;;;;;21.60;32.30;;;;;;8397250;28;20067;-43
2023/04/11 17:26:42;;;;;;;;;;;21.50;32.80;;;;;;8396946;28;20293;-45
2023/04/11 17:30:43;;;;;;;;;;;21.60;32.30;;;;;;8397140;28;19920;-44
2023/04/11 17:34:43;;;;;;;;;;;21.60;32.30;;;;;;8396845;28;19917;-44
2023/04/11 17:38:44;;;;;;;;;;;21.60;32.20;;;;;;8396749;28;19916;-45
2023/04/11 17:42:44;;;;;;;;;;;21.60;32.20;;;;;;8396787;28;20358;-44
2023/04/11 17:46:45;;;;;;;;;;;21.60;32.20;;;;;;8396659;28;19927;-45
2023/04/11 17:50:45;;;;;;;;;;;21.60;32.10;;;;;;8396302;28;19925;-45
2023/04/11 17:54:46;;;;;;;;;;;21.60;32.10;;;;;;8396525;28;19959;-44
2023/04/11 17:58:47;;;;;;;;;;;21.60;32.10;;;;;;8396357;28;19916;-44
2023/04/11 18:02:48;;;;;;;;;;;21.60;32.20;;;;;;8395471;28;20371;-44
2023/04/11 18:06:48;;;;;;;;;;;21.60;32.20;;;;;;8394928;28;19924;-44
2023/04/11 18:10:49;;;;;;;;;;;21.60;32.20;;;;;;8396589;28;20340;-45
2023/04/11 18:14:49;;;;;;;;;;;21.50;32.20;;;;;;8395718;28;20019;-44
2023/04/11 18:18:50;;;;;;;;;;;21.50;32.20;;;;;;8396256;28;19920;-44
2023/04/11 18:22:53;;;;;;;;;;;21.50;32.20;;;;;;8395991;28;20330;-45
2023/04/11 18:26:53;;;;;;;;;;;21.50;32.30;;;;;;8395523;28;19924;-44
2023/04/11 18:30:54;;;;;;;;;;;21.50;32.30;;;;;;8396215;28;19924;-45
2023/04/11 18:34:54;;;;;;;;;;;21.50;32.30;;;;;;8395604;28;19920;-44
2023/04/11 18:38:55;;;;;;;;;;;21.50;32.30;;;;;;8395330;28;19917;-45
2023/04/11 18:42:55;;;;;;;;;;;21.40;32.30;;;;;;8396088;28;19920;-43
2023/04/11 18:46:56;;;;;;;;;;;21.50;32.40;;;;;;8396173;28;20629;-45
2023/04/11 18:50:57;;;;;;;;;;;21.40;32.30;;;;;;8395221;28;20328;-43
2023/04/11 18:54:58;;;;;;;;;;;21.50;32.90;;;;;;8395970;28;20318;-44
2023/04/11 18:58:58;;;;;;;;;;;21.50;32.40;;;;;;8395627;28;19923;-44
2023/04/11 19:02:58;;;;;;;;;;;21.50;32.40;;;;;;8395068;28;19928;-43
2023/04/11 19:07:00;;;;;;;;;;;21.50;32.40;;;;;;8394872;28;20362;-44
2023/04/11 19:11:00;;;;;;;;;;;21.50;32.30;;;;;;8395759;28;20470;-44
2023/04/11 19:15:01;;;;;;;;;;;21.50;32.40;;;;;;8397164;28;19916;-43
2023/04/11 19:19:02;;;;;;;;;;;21.60;32.40;;;;;;8401420;28;20262;-44
2023/04/11 19:23:02;;;;;;;;;;;21.50;32.30;;;;;;8401291;28;19916;-44
2023/04/11 19:27:02;;;;;;;;;;;21.60;32.30;;;;;;8400764;28;19920;-44
2023/04/11 19:31:03;;;;;;;;;;;21.60;32.30;;;;;;8401099;28;19925;-45
2023/04/11 19:35:04;;;;;;;;;;;21.60;32.30;;;;;;8401377;28;19924;-44
2023/04/11 19:39:05;;;;;;;;;;;21.50;32.30;;;;;;8400273;28;19916;-44
2023/04/11 19:43:06;;;;;;;;;;;21.50;32.40;;;;;;8400832;28;19954;-43
2023/04/11 19:47:06;;;;;;;;;;;21.50;32.40;;;;;;8400785;28;20296;-44
2023/04/11 19:51:07;;;;;;;;;;;21.50;32.40;;;;;;8400040;28;19931;-46
2023/04/11 19:55:09;;;;;;;;;;;21.50;32.40;;;;;;8400620;28;19920;-44
2023/04/11 19:59:09;;;;;;;;;;;21.50;32.40;;;;;;8400368;28;19925;-43
2023/04/11 20:03:13;;;;;;;;;;;21.50;32.40;;;;;;8399571;28;19928;-43
2023/04/11 20:07:14;;;;;;;;;;;21.50;32.50;;;;;;8400378;28;19948;-44
2023/04/11 20:11:14;;;;;;;;;;;21.40;32.40;;;;;;8400172;28;19932;-44
2023/04/11 20:15:15;;;;;;;;;;;21.40;32.40;;;;;;8399207;28;20011;-43
2023/04/11 20:19:16;;;;;;;;;;;21.40;32.40;;;;;;8399733;28;19924;-45
2023/04/11 20:23:16;;;;;;;;;;;21.40;32.50;;;;;;8399130;28;19919;-43
2023/04/11 20:27:17;;;;;;;;;;;21.40;32.50;;;;;;8398780;28;19939;-45
2023/04/11 20:31:17;;;;;;;;;;;21.40;32.60;;;;;;8398220;28;19924;-42
2023/04/11 20:35:18;;;;;;;;;;;21.40;32.60;;;;;;8399046;28;20327;-44
2023/04/11 20:39:18;;;;;;;;;;;21.40;32.60;;;;;;8398289;28;19943;-44
2023/04/11 20:43:19;;;;;;;;;;;21.40;32.70;;;;;;8399110;28;20331;-44
2023/04/11 20:47:19;;;;;;;;;;;21.40;32.60;;;;;;8398828;28;20370;-44
2023/04/11 20:51:20;;;;;;;;;;;21.40;32.60;;;;;;8398009;28;19925;-44
2023/04/11 20:55:20;;;;;;;;;;;21.50;32.60;;;;;;8398537;28;19924;-44
2023/04/11 20:59:21;;;;;;;;;;;21.50;32.60;;;;;;8398346;28;19920;-45
2023/04/11 21:03:21;;;;;;;;;;;21.50;32.60;;;;;;8397861;28;19927;-44
2023/04/11 21:07:22;;;;;;;;;;;21.50;32.70;;;;;;8398248;28;19951;-44
2023/04/11 21:11:22;;;;;;;;;;;21.40;32.70;;;;;;8397758;28;20042;-44
2023/04/11 21:15:23;;;;;;;;;;;21.50;32.70;;;;;;8397227;28;19917;-45
2023/04/11 21:19:23;;;;;;;;;;;21.50;32.70;;;;;;8397710;28;19923;-44
2023/04/11 21:23:24;;;;;;;;;;;21.40;32.70;;;;;;8397475;28;19916;-45
2023/04/11 21:27:25;;;;;;;;;;;21.40;32.80;;;;;;8397180;28;19916;-45
2023/04/11 21:31:25;;;;;;;;;;;21.40;32.80;;;;;;8397241;28;19935;-45
2023/04/11 21:35:25;;;;;;;;;;;21.40;32.80;;;;;;8397047;28;19921;-45
2023/04/11 21:39:26;;;;;;;;;;;21.40;32.90;;;;;;8395914;28;19920;-45
2023/04/11 21:43:27;;;;;;;;;;;21.40;32.90;;;;;;8397107;28;19962;-46
2023/04/11 21:47:27;;;;;;;;;;;21.40;32.90;;;;;;8397660;28;19916;-47
2023/04/11 21:51:28;;;;;;;;;;;21.30;32.80;;;;;;8394311;28;19985;-45
2023/04/11 21:55:28;;;;;;;;;;;21.30;32.80;;;;;;8397014;28;19924;-45
2023/04/11 21:59:29;;;;;;;;;;;21.30;32.80;;;;;;8396939;28;19970;-44
2023/04/11 22:03:29;;;;;;;;;;;21.30;32.90;;;;;;8395158;28;19920;-45
2023/04/11 22:07:37;;;;;;;;;;;21.20;32.80;;;;;;8396839;28;19960;-45
2023/04/11 22:11:38;;;;;;;;;;;21.20;32.80;;;;;;8395282;28;19924;-45
2023/04/11 22:15:39;;;;;;;;;;;21.20;32.80;;;;;;8396633;28;19916;-44
2023/04/11 22:19:41;;;;;;;;;;;21.20;32.80;;;;;;8396072;28;19973;-45
2023/04/11 22:23:41;;;;;;;;;;;21.20;33.00;;;;;;8395351;28;19920;-46
2023/04/11 22:27:43;;;;;;;;;;;21.20;33.00;;;;;;8396122;28;20381;-45
2023/04/11 22:31:46;;;;;;;;;;;21.10;33.00;;;;;;8395685;28;19932;-45
2023/04/11 22:35:46;;;;;;;;;;;21.10;33.00;;;;;;8394937;28;19932;-45
2023/04/11 22:39:46;;;;;;;;;;;21.10;33.10;;;;;;8395532;28;19917;-46
2023/04/11 22:43:47;;;;;;;;;;;21.10;33.00;;;;;;8395487;28;19927;-45
2023/04/11 22:47:52;;;;;;;;;;;21.10;33.10;;;;;;8395282;28;19981;-45
2023/04/11 22:51:57;;;;;;;;;;;21.10;33.20;;;;;;8402184;28;20013;-45
2023/04/11 22:55:58;;;;;;;;;;;21.10;33.10;;;;;;8401976;28;19944;-45
2023/04/11 22:59:58;;;;;;;;;;;21.00;33.10;;;;;;8401197;28;19939;-45
2023/04/11 23:03:59;;;;;;;;;;;21.00;33.10;;;;;;8401451;28;19948;-46
2023/04/11 23:07:59;;;;;;;;;;;21.00;33.10;;;;;;8401808;28;19994;-44
2023/04/11 23:12:00;;;;;;;;;;;21.00;33.20;;;;;;8400798;28;19924;-43
2023/04/11 23:16:01;;;;;;;;;;;21.00;33.20;;;;;;8401449;28;19939;-43
2023/04/11 23:20:05;;;;;;;;;;;20.90;33.20;;;;;;8401478;28;19917;-45